sensor_id;sensor_type;location;lat;lon;timestamp;P1;durP1;ratioP1;P2;durP2;ratioP2
69951;SDS011;60406;48.408;13.392;2022-09-24T00:00:30;10.48;;;9.38;;
69951;SDS011;60406;48.408;13.392;2022-09-24T00:05:35;10.20;;;8.85;;
69951;SDS011;60406;48.408;13.392;2022-09-24T00:10:39;9.40;;;8.43;;
69951;SDS011;60406;48.408;13.392;2022-09-24T00:15:42;10.45;;;9.05;;
69951;SDS011;60406;48.408;13.392;2022-09-24T00:20:45;11.07;;;9.93;;
69951;SDS011;60406;48.408;13.392;2022-09-24T00:25:46;11.63;;;10.07;;
69951;SDS011;60406;48.408;13.392;2022-09-24T00:30:47;9.88;;;8.88;;
69951;SDS011;60406;48.408;13.392;2022-09-24T00:35:48;12.90;;;8.60;;
69951;SDS011;60406;48.408;13.392;2022-09-24T00:40:49;14.18;;;9.13;;
69951;SDS011;60406;48.408;13.392;2022-09-24T00:45:54;9.95;;;8.82;;
69951;SDS011;60406;48.408;13.392;2022-09-24T00:51:17;12.00;;;9.32;;
69951;SDS011;60406;48.408;13.392;2022-09-24T00:56:20;10.25;;;8.85;;
69951;SDS011;60406;48.408;13.392;2022-09-24T01:01:23;15.00;;;9.75;;
69951;SDS011;60406;48.408;13.392;2022-09-24T01:06:25;13.57;;;8.70;;
69951;SDS011;60406;48.408;13.392;2022-09-24T01:32:46;10.18;;;9.07;;
69951;SDS011;60406;48.408;13.392;2022-09-24T01:37:52;11.18;;;9.32;;
69951;SDS011;60406;48.408;13.392;2022-09-24T01:42:56;12.15;;;9.57;;
69951;SDS011;60406;48.408;13.392;2022-09-24T01:47:58;10.95;;;8.98;;
69951;SDS011;60406;48.408;13.392;2022-09-24T01:53:06;10.82;;;8.75;;
69951;SDS011;60406;48.408;13.392;2022-09-24T01:58:12;9.57;;;8.52;;
69951;SDS011;60406;48.408;13.392;2022-09-24T02:03:24;10.05;;;8.85;;
69951;SDS011;60406;48.408;13.392;2022-09-24T02:08:28;11.98;;;9.77;;
69951;SDS011;60406;48.408;13.392;2022-09-24T02:13:38;12.23;;;8.77;;
69951;SDS011;60406;48.408;13.392;2022-09-24T02:18:53;13.98;;;9.10;;
69951;SDS011;60406;48.408;13.392;2022-09-24T02:24:04;10.35;;;9.30;;
69951;SDS011;60406;48.408;13.392;2022-09-24T02:29:07;11.85;;;10.63;;
69951;SDS011;60406;48.408;13.392;2022-09-24T02:34:13;10.77;;;9.63;;
69951;SDS011;60406;48.408;13.392;2022-09-24T02:39:17;10.93;;;9.32;;
69951;SDS011;60406;48.408;13.392;2022-09-24T02:44:18;11.63;;;9.20;;
69951;SDS011;60406;48.408;13.392;2022-09-24T02:49:19;12.90;;;9.88;;
69951;SDS011;60406;48.408;13.392;2022-09-24T02:54:20;11.90;;;10.02;;
69951;SDS011;60406;48.408;13.392;2022-09-24T02:59:21;10.95;;;9.50;;
69951;SDS011;60406;48.408;13.392;2022-09-24T03:04:22;11.30;;;9.75;;
69951;SDS011;60406;48.408;13.392;2022-09-24T03:09:23;12.88;;;9.95;;
69951;SDS011;60406;48.408;13.392;2022-09-24T03:14:24;12.80;;;10.10;;
69951;SDS011;60406;48.408;13.392;2022-09-24T03:19:25;10.82;;;8.68;;
69951;SDS011;60406;48.408;13.392;2022-09-24T03:24:26;10.32;;;9.10;;
69951;SDS011;60406;48.408;13.392;2022-09-24T03:29:27;12.95;;;11.25;;
69951;SDS011;60406;48.408;13.392;2022-09-24T03:34:27;14.80;;;10.73;;
69951;SDS011;60406;48.408;13.392;2022-09-24T03:39:28;14.60;;;10.00;;
69951;SDS011;60406;48.408;13.392;2022-09-24T03:44:29;14.32;;;9.02;;
69951;SDS011;60406;48.408;13.392;2022-09-24T03:49:30;13.25;;;10.07;;
69951;SDS011;60406;48.408;13.392;2022-09-24T03:54:31;13.65;;;12.20;;
69951;SDS011;60406;48.408;13.392;2022-09-24T03:59:32;14.45;;;10.82;;
69951;SDS011;60406;48.408;13.392;2022-09-24T04:04:33;12.63;;;11.23;;
69951;SDS011;60406;48.408;13.392;2022-09-24T04:09:34;13.75;;;11.68;;
69951;SDS011;60406;48.408;13.392;2022-09-24T04:14:34;14.27;;;12.25;;
69951;SDS011;60406;48.408;13.392;2022-09-24T04:19:35;15.13;;;13.02;;
69951;SDS011;60406;48.408;13.392;2022-09-24T04:24:36;18.15;;;12.57;;
69951;SDS011;60406;48.408;13.392;2022-09-24T04:29:37;14.43;;;10.60;;
69951;SDS011;60406;48.408;13.392;2022-09-24T04:34:38;13.32;;;10.25;;
69951;SDS011;60406;48.408;13.392;2022-09-24T04:39:39;17.63;;;12.05;;
69951;SDS011;60406;48.408;13.392;2022-09-24T04:44:40;16.33;;;11.73;;
69951;SDS011;60406;48.408;13.392;2022-09-24T04:49:41;13.32;;;11.93;;
69951;SDS011;60406;48.408;13.392;2022-09-24T04:54:43;15.60;;;12.13;;
69951;SDS011;60406;48.408;13.392;2022-09-24T04:59:44;11.10;;;9.88;;
69951;SDS011;60406;48.408;13.392;2022-09-24T05:04:44;11.50;;;10.30;;
69951;SDS011;60406;48.408;13.392;2022-09-24T05:09:45;13.82;;;10.93;;
69951;SDS011;60406;48.408;13.392;2022-09-24T05:14:46;13.45;;;10.15;;
69951;SDS011;60406;48.408;13.392;2022-09-24T05:19:47;16.05;;;10.48;;
69951;SDS011;60406;48.408;13.392;2022-09-24T05:24:48;14.73;;;11.70;;
69951;SDS011;60406;48.408;13.392;2022-09-24T05:29:49;12.80;;;11.30;;
69951;SDS011;60406;48.408;13.392;2022-09-24T05:34:50;17.00;;;11.75;;
69951;SDS011;60406;48.408;13.392;2022-09-24T05:39:51;13.20;;;11.18;;
69951;SDS011;60406;48.408;13.392;2022-09-24T05:44:51;12.55;;;10.50;;
69951;SDS011;60406;48.408;13.392;2022-09-24T05:49:52;11.23;;;10.10;;
69951;SDS011;60406;48.408;13.392;2022-09-24T05:54:53;14.25;;;11.02;;
69951;SDS011;60406;48.408;13.392;2022-09-24T05:59:54;15.98;;;10.93;;
69951;SDS011;60406;48.408;13.392;2022-09-24T06:04:55;16.35;;;12.70;;
69951;SDS011;60406;48.408;13.392;2022-09-24T06:09:56;17.02;;;13.73;;
69951;SDS011;60406;48.408;13.392;2022-09-24T06:14:57;17.35;;;12.90;;
69951;SDS011;60406;48.408;13.392;2022-09-24T06:19:58;19.85;;;14.93;;
69951;SDS011;60406;48.408;13.392;2022-09-24T06:24:58;20.50;;;15.15;;
69951;SDS011;60406;48.408;13.392;2022-09-24T06:29:59;19.42;;;14.65;;
69951;SDS011;60406;48.408;13.392;2022-09-24T06:35:00;16.15;;;13.98;;
69951;SDS011;60406;48.408;13.392;2022-09-24T06:40:01;16.52;;;13.27;;
69951;SDS011;60406;48.408;13.392;2022-09-24T06:45:02;13.75;;;12.20;;
69951;SDS011;60406;48.408;13.392;2022-09-24T06:50:03;17.08;;;13.55;;
69951;SDS011;60406;48.408;13.392;2022-09-24T06:55:04;19.35;;;13.48;;
69951;SDS011;60406;48.408;13.392;2022-09-24T07:00:05;14.95;;;13.27;;
69951;SDS011;60406;48.408;13.392;2022-09-24T07:05:07;17.40;;;13.27;;
69951;SDS011;60406;48.408;13.392;2022-09-24T07:10:08;16.15;;;13.02;;
69951;SDS011;60406;48.408;13.392;2022-09-24T07:15:09;15.48;;;11.82;;
69951;SDS011;60406;48.408;13.392;2022-09-24T07:20:10;14.98;;;12.07;;
69951;SDS011;60406;48.408;13.392;2022-09-24T07:25:11;15.57;;;9.75;;
69951;SDS011;60406;48.408;13.392;2022-09-24T07:30:12;13.35;;;8.85;;
69951;SDS011;60406;48.408;13.392;2022-09-24T07:35:13;10.88;;;9.00;;
69951;SDS011;60406;48.408;13.392;2022-09-24T07:40:14;14.70;;;9.45;;
69951;SDS011;60406;48.408;13.392;2022-09-24T07:45:14;11.10;;;7.90;;
69951;SDS011;60406;48.408;13.392;2022-09-24T07:50:15;12.30;;;8.73;;
69951;SDS011;60406;48.408;13.392;2022-09-24T07:55:16;8.23;;;7.43;;
69951;SDS011;60406;48.408;13.392;2022-09-24T08:00:18;9.32;;;7.18;;
69951;SDS011;60406;48.408;13.392;2022-09-24T08:05:19;8.98;;;7.97;;
69951;SDS011;60406;48.408;13.392;2022-09-24T08:10:21;12.48;;;7.50;;
69951;SDS011;60406;48.408;13.392;2022-09-24T08:15:23;11.07;;;7.57;;
69951;SDS011;60406;48.408;13.392;2022-09-24T08:20:24;9.63;;;7.90;;
69951;SDS011;60406;48.408;13.392;2022-09-24T08:25:25;8.30;;;7.35;;
69951;SDS011;60406;48.408;13.392;2022-09-24T08:30:26;12.02;;;8.25;;
69951;SDS011;60406;48.408;13.392;2022-09-24T08:35:27;9.85;;;7.88;;
69951;SDS011;60406;48.408;13.392;2022-09-24T08:40:38;9.20;;;8.30;;
69951;SDS011;60406;48.408;13.392;2022-09-24T08:45:46;10.20;;;6.88;;
69951;SDS011;60406;48.408;13.392;2022-09-24T08:50:57;12.82;;;7.25;;
69951;SDS011;60406;48.408;13.392;2022-09-24T08:56:01;8.48;;;7.63;;
69951;SDS011;60406;48.408;13.392;2022-09-24T09:01:09;11.10;;;6.72;;
69951;SDS011;60406;48.408;13.392;2022-09-24T09:11:21;10.00;;;7.20;;
69951;SDS011;60406;48.408;13.392;2022-09-24T09:21:51;13.98;;;6.78;;
69951;SDS011;60406;48.408;13.392;2022-09-24T09:26:55;9.75;;;7.22;;
69951;SDS011;60406;48.408;13.392;2022-09-24T09:32:04;8.10;;;7.18;;
69951;SDS011;60406;48.408;13.392;2022-09-24T09:37:15;15.38;;;6.97;;
69951;SDS011;60406;48.408;13.392;2022-09-24T09:42:35;8.55;;;6.85;;
69951;SDS011;60406;48.408;13.392;2022-09-24T09:47:41;10.52;;;6.90;;
69951;SDS011;60406;48.408;13.392;2022-09-24T09:52:44;10.57;;;6.80;;
69951;SDS011;60406;48.408;13.392;2022-09-24T09:57:45;7.18;;;6.47;;
69951;SDS011;60406;48.408;13.392;2022-09-24T10:02:48;7.57;;;6.60;;
69951;SDS011;60406;48.408;13.392;2022-09-24T10:07:49;7.53;;;6.72;;
69951;SDS011;60406;48.408;13.392;2022-09-24T10:12:54;8.40;;;6.22;;
69951;SDS011;60406;48.408;13.392;2022-09-24T10:18:09;9.73;;;6.63;;
69951;SDS011;60406;48.408;13.392;2022-09-24T10:23:17;9.30;;;6.55;;
69951;SDS011;60406;48.408;13.392;2022-09-24T10:28:20;10.00;;;6.78;;
69951;SDS011;60406;48.408;13.392;2022-09-24T10:33:21;7.78;;;6.57;;
69951;SDS011;60406;48.408;13.392;2022-09-24T10:38:22;10.95;;;6.97;;
69951;SDS011;60406;48.408;13.392;2022-09-24T10:43:23;8.55;;;6.30;;
69951;SDS011;60406;48.408;13.392;2022-09-24T11:36:11;15.40;;;7.47;;
69951;SDS011;60406;48.408;13.392;2022-09-24T11:41:27;8.75;;;7.95;;
69951;SDS011;60406;48.408;13.392;2022-09-24T11:56:56;10.80;;;7.63;;
69951;SDS011;60406;48.408;13.392;2022-09-24T12:02:04;9.75;;;7.68;;
69951;SDS011;60406;48.408;13.392;2022-09-24T12:07:14;8.40;;;7.35;;
69951;SDS011;60406;48.408;13.392;2022-09-24T12:12:26;13.43;;;8.38;;
69951;SDS011;60406;48.408;13.392;2022-09-24T12:17:34;8.70;;;7.55;;
69951;SDS011;60406;48.408;13.392;2022-09-24T12:22:37;9.30;;;8.30;;
69951;SDS011;60406;48.408;13.392;2022-09-24T12:27:39;11.65;;;8.43;;
69951;SDS011;60406;48.408;13.392;2022-09-24T12:32:43;9.45;;;8.52;;
69951;SDS011;60406;48.408;13.392;2022-09-24T12:37:50;8.85;;;7.95;;
69951;SDS011;60406;48.408;13.392;2022-09-24T12:42:55;13.20;;;9.55;;
69951;SDS011;60406;48.408;13.392;2022-09-24T12:47:58;18.02;;;9.80;;
69951;SDS011;60406;48.408;13.392;2022-09-24T12:52:59;12.65;;;9.90;;
69951;SDS011;60406;48.408;13.392;2022-09-24T12:58:02;9.90;;;8.90;;
69951;SDS011;60406;48.408;13.392;2022-09-24T13:03:05;11.82;;;9.10;;
69951;SDS011;60406;48.408;13.392;2022-09-24T13:13:21;11.93;;;8.60;;
69951;SDS011;60406;48.408;13.392;2022-09-24T13:18:24;10.45;;;8.68;;
69951;SDS011;60406;48.408;13.392;2022-09-24T13:28:26;13.48;;;9.10;;
69951;SDS011;60406;48.408;13.392;2022-09-24T13:33:29;12.83;;;10.47;;
69951;SDS011;60406;48.408;13.392;2022-09-24T13:38:35;12.30;;;11.00;;
69951;SDS011;60406;48.408;13.392;2022-09-24T13:43:43;16.38;;;11.75;;
69951;SDS011;60406;48.408;13.392;2022-09-24T13:48:52;17.05;;;11.90;;
69951;SDS011;60406;48.408;13.392;2022-09-24T13:53:56;16.05;;;13.57;;
69951;SDS011;60406;48.408;13.392;2022-09-24T13:59:10;17.92;;;13.20;;
69951;SDS011;60406;48.408;13.392;2022-09-24T14:04:15;19.50;;;16.52;;
69951;SDS011;60406;48.408;13.392;2022-09-24T14:09:23;18.65;;;12.93;;
69951;SDS011;60406;48.408;13.392;2022-09-24T14:14:28;24.52;;;17.83;;
69951;SDS011;60406;48.408;13.392;2022-09-24T14:19:30;16.50;;;14.15;;
69951;SDS011;60406;48.408;13.392;2022-09-24T14:24:34;17.80;;;14.15;;
69951;SDS011;60406;48.408;13.392;2022-09-24T14:34:50;18.38;;;14.18;;
69951;SDS011;60406;48.408;13.392;2022-09-24T14:40:00;17.75;;;14.55;;
69951;SDS011;60406;48.408;13.392;2022-09-24T14:45:04;15.45;;;13.85;;
69951;SDS011;60406;48.408;13.392;2022-09-24T14:50:26;23.52;;;15.02;;
69951;SDS011;60406;48.408;13.392;2022-09-24T14:55:38;16.02;;;14.32;;
69951;SDS011;60406;48.408;13.392;2022-09-24T15:00:47;18.65;;;14.88;;
69951;SDS011;60406;48.408;13.392;2022-09-24T15:06:00;17.30;;;15.50;;
69951;SDS011;60406;48.408;13.392;2022-09-24T15:11:03;17.50;;;15.52;;
69951;SDS011;60406;48.408;13.392;2022-09-24T15:21:27;18.95;;;16.65;;
69951;SDS011;60406;48.408;13.392;2022-09-24T15:26:29;19.42;;;17.15;;
69951;SDS011;60406;48.408;13.392;2022-09-24T15:31:31;23.15;;;16.52;;
69951;SDS011;60406;48.408;13.392;2022-09-24T15:36:32;20.33;;;18.13;;
69951;SDS011;60406;48.408;13.392;2022-09-24T15:41:33;35.58;;;27.20;;
69951;SDS011;60406;48.408;13.392;2022-09-24T15:46:34;37.65;;;28.80;;
69951;SDS011;60406;48.408;13.392;2022-09-24T15:51:35;51.70;;;37.20;;
69951;SDS011;60406;48.408;13.392;2022-09-24T15:56:38;44.35;;;38.33;;
69951;SDS011;60406;48.408;13.392;2022-09-24T16:01:39;56.45;;;44.85;;
69951;SDS011;60406;48.408;13.392;2022-09-24T16:06:40;34.10;;;27.80;;
69951;SDS011;60406;48.408;13.392;2022-09-24T16:11:41;29.02;;;24.23;;
69951;SDS011;60406;48.408;13.392;2022-09-24T16:16:41;26.17;;;23.30;;
69951;SDS011;60406;48.408;13.392;2022-09-24T16:21:42;20.38;;;18.25;;
69951;SDS011;60406;48.408;13.392;2022-09-24T16:26:43;24.67;;;20.15;;
69951;SDS011;60406;48.408;13.392;2022-09-24T16:31:44;28.85;;;25.27;;
69951;SDS011;60406;48.408;13.392;2022-09-24T16:36:45;27.50;;;24.40;;
69951;SDS011;60406;48.408;13.392;2022-09-24T16:41:47;33.08;;;29.58;;
69951;SDS011;60406;48.408;13.392;2022-09-24T16:46:48;31.73;;;28.35;;
69951;SDS011;60406;48.408;13.392;2022-09-24T16:51:49;31.35;;;28.20;;
69951;SDS011;60406;48.408;13.392;2022-09-24T16:56:50;32.45;;;28.20;;
69951;SDS011;60406;48.408;13.392;2022-09-24T17:01:51;35.38;;;31.02;;
69951;SDS011;60406;48.408;13.392;2022-09-24T17:06:52;59.42;;;39.17;;
69951;SDS011;60406;48.408;13.392;2022-09-24T17:11:54;222.15;;;109.88;;
69951;SDS011;60406;48.408;13.392;2022-09-24T17:16:54;40.35;;;29.42;;
69951;SDS011;60406;48.408;13.392;2022-09-24T17:21:55;28.70;;;24.38;;
69951;SDS011;60406;48.408;13.392;2022-09-24T17:26:56;186.07;;;88.40;;
69951;SDS011;60406;48.408;13.392;2022-09-24T17:31:57;151.68;;;77.95;;
69951;SDS011;60406;48.408;13.392;2022-09-24T17:36:58;72.32;;;44.78;;
69951;SDS011;60406;48.408;13.392;2022-09-24T17:41:59;72.82;;;46.35;;
69951;SDS011;60406;48.408;13.392;2022-09-24T17:47:00;49.38;;;37.38;;
69951;SDS011;60406;48.408;13.392;2022-09-24T17:52:01;60.33;;;44.78;;
69951;SDS011;60406;48.408;13.392;2022-09-24T17:57:02;60.30;;;42.78;;
69951;SDS011;60406;48.408;13.392;2022-09-24T18:02:03;73.47;;;49.42;;
69951;SDS011;60406;48.408;13.392;2022-09-24T18:07:04;46.33;;;40.40;;
69951;SDS011;60406;48.408;13.392;2022-09-24T18:12:04;53.97;;;38.38;;
69951;SDS011;60406;48.408;13.392;2022-09-24T18:17:06;43.67;;;35.88;;
69951;SDS011;60406;48.408;13.392;2022-09-24T18:22:07;57.22;;;46.13;;
69951;SDS011;60406;48.408;13.392;2022-09-24T18:27:08;56.38;;;47.00;;
69951;SDS011;60406;48.408;13.392;2022-09-24T18:32:09;61.33;;;45.25;;
69951;SDS011;60406;48.408;13.392;2022-09-24T18:37:09;49.30;;;41.95;;
69951;SDS011;60406;48.408;13.392;2022-09-24T18:42:10;47.97;;;38.65;;
69951;SDS011;60406;48.408;13.392;2022-09-24T18:47:11;41.03;;;36.53;;
69951;SDS011;60406;48.408;13.392;2022-09-24T18:52:12;45.83;;;36.85;;
69951;SDS011;60406;48.408;13.392;2022-09-24T18:57:13;56.90;;;42.45;;
69951;SDS011;60406;48.408;13.392;2022-09-24T19:02:14;47.78;;;36.17;;
69951;SDS011;60406;48.408;13.392;2022-09-24T19:07:15;45.63;;;35.47;;
69951;SDS011;60406;48.408;13.392;2022-09-24T19:12:16;41.28;;;36.10;;
69951;SDS011;60406;48.408;13.392;2022-09-24T19:17:17;43.72;;;38.35;;
69951;SDS011;60406;48.408;13.392;2022-09-24T19:22:18;45.83;;;39.10;;
69951;SDS011;60406;48.408;13.392;2022-09-24T19:27:18;47.78;;;41.33;;
69951;SDS011;60406;48.408;13.392;2022-09-24T19:32:19;45.85;;;39.38;;
69951;SDS011;60406;48.408;13.392;2022-09-24T19:37:20;55.22;;;43.10;;
69951;SDS011;60406;48.408;13.392;2022-09-24T19:42:21;50.10;;;41.88;;
69951;SDS011;60406;48.408;13.392;2022-09-24T19:47:22;46.78;;;38.75;;
69951;SDS011;60406;48.408;13.392;2022-09-24T19:52:23;48.95;;;41.45;;
69951;SDS011;60406;48.408;13.392;2022-09-24T19:57:24;43.55;;;36.92;;
69951;SDS011;60406;48.408;13.392;2022-09-24T20:02:24;43.03;;;36.25;;
69951;SDS011;60406;48.408;13.392;2022-09-24T20:07:25;58.03;;;39.25;;
69951;SDS011;60406;48.408;13.392;2022-09-24T20:12:26;54.22;;;39.58;;
69951;SDS011;60406;48.408;13.392;2022-09-24T20:17:27;47.00;;;37.42;;
69951;SDS011;60406;48.408;13.392;2022-09-24T20:22:30;43.67;;;36.03;;
69951;SDS011;60406;48.408;13.392;2022-09-24T20:27:31;42.92;;;35.78;;
69951;SDS011;60406;48.408;13.392;2022-09-24T20:32:33;41.97;;;34.55;;
69951;SDS011;60406;48.408;13.392;2022-09-24T20:37:34;39.80;;;32.92;;
69951;SDS011;60406;48.408;13.392;2022-09-24T20:42:36;43.65;;;36.90;;
69951;SDS011;60406;48.408;13.392;2022-09-24T20:47:37;44.08;;;37.22;;
69951;SDS011;60406;48.408;13.392;2022-09-24T20:52:38;48.95;;;37.28;;
69951;SDS011;60406;48.408;13.392;2022-09-24T20:57:39;50.17;;;39.97;;
69951;SDS011;60406;48.408;13.392;2022-09-24T21:02:40;43.20;;;36.38;;
69951;SDS011;60406;48.408;13.392;2022-09-24T21:07:41;50.47;;;39.45;;
69951;SDS011;60406;48.408;13.392;2022-09-24T21:12:42;56.85;;;43.42;;
69951;SDS011;60406;48.408;13.392;2022-09-24T21:17:43;62.53;;;42.35;;
69951;SDS011;60406;48.408;13.392;2022-09-24T21:22:44;63.00;;;42.95;;
69951;SDS011;60406;48.408;13.392;2022-09-24T21:27:44;45.72;;;36.58;;
69951;SDS011;60406;48.408;13.392;2022-09-24T21:32:45;48.80;;;38.85;;
69951;SDS011;60406;48.408;13.392;2022-09-24T21:37:46;42.63;;;36.88;;
69951;SDS011;60406;48.408;13.392;2022-09-24T21:42:47;59.17;;;44.67;;
69951;SDS011;60406;48.408;13.392;2022-09-24T21:47:48;39.95;;;35.75;;
69951;SDS011;60406;48.408;13.392;2022-09-24T21:52:49;41.67;;;30.90;;
69951;SDS011;60406;48.408;13.392;2022-09-24T21:57:50;294.58;;;46.30;;
69951;SDS011;60406;48.408;13.392;2022-09-24T22:02:50;81.85;;;35.85;;
69951;SDS011;60406;48.408;13.392;2022-09-24T22:07:51;103.60;;;42.75;;
69951;SDS011;60406;48.408;13.392;2022-09-24T22:12:53;51.92;;;42.15;;
69951;SDS011;60406;48.408;13.392;2022-09-24T22:17:54;74.55;;;43.15;;
69951;SDS011;60406;48.408;13.392;2022-09-24T22:22:54;45.58;;;35.20;;
69951;SDS011;60406;48.408;13.392;2022-09-24T22:27:55;69.93;;;32.90;;
69951;SDS011;60406;48.408;13.392;2022-09-24T22:32:56;132.77;;;32.33;;
69951;SDS011;60406;48.408;13.392;2022-09-24T22:37:57;273.10;;;37.45;;
69951;SDS011;60406;48.408;13.392;2022-09-24T22:42:58;198.65;;;38.33;;
69951;SDS011;60406;48.408;13.392;2022-09-24T22:47:59;103.88;;;36.55;;
69951;SDS011;60406;48.408;13.392;2022-09-24T22:53:00;224.40;;;41.22;;
69951;SDS011;60406;48.408;13.392;2022-09-24T22:58:01;111.25;;;40.35;;
69951;SDS011;60406;48.408;13.392;2022-09-24T23:03:02;77.53;;;42.58;;
69951;SDS011;60406;48.408;13.392;2022-09-24T23:08:03;57.50;;;39.88;;
69951;SDS011;60406;48.408;13.392;2022-09-24T23:13:04;59.78;;;41.40;;
69951;SDS011;60406;48.408;13.392;2022-09-24T23:18:05;61.22;;;40.67;;
69951;SDS011;60406;48.408;13.392;2022-09-24T23:23:05;49.92;;;39.25;;
69951;SDS011;60406;48.408;13.392;2022-09-24T23:28:06;77.13;;;39.50;;
69951;SDS011;60406;48.408;13.392;2022-09-24T23:33:07;106.90;;;42.70;;
69951;SDS011;60406;48.408;13.392;2022-09-24T23:38:08;165.68;;;40.72;;
69951;SDS011;60406;48.408;13.392;2022-09-24T23:43:09;155.95;;;38.33;;
69951;SDS011;60406;48.408;13.392;2022-09-24T23:48:10;142.02;;;41.60;;
69951;SDS011;60406;48.408;13.392;2022-09-24T23:53:11;101.32;;;38.00;;
69951;SDS011;60406;48.408;13.392;2022-09-24T23:58:13;81.10;;;36.42;;
